메인 페이지
METAR-TAF:

METAR-TAF

공항 :

타브리즈, 이란

위도: 38-05N, 경도: 046-17E, 고도: 1367m

현재 날씨관측

예보는 33분 전, 20:00시(UTC)에 발표되었습니다.
동북동4kt
온도 9°C
습도 71%
기압 1023 hPa
시정 10km 이상
고도 3500ft 상공 구름 조금
고도 17000ft 상공 구름 많음

METAR: OITT 052000Z 06004KT 9999 FEW035 BKN170 09/04 Q1023 A3021

시각: 01:03 (20:33 UTC)

예보

예보는 3 시간 3분 전, 17:30시(UTC)에 발표되었습니다.
예보 대상 시간: 05일 18시부터 06일 24시까지 (UTC)
동북동8kt
시정: 8000m
고도 4000ft 상공 구름 조금
고도 10000ft 상공 구름 보통
일시적
05일 21시부터 06일 05시까지 (UTC)
고도 3500ft 상공 구름 조금, 적란운.
고도 4000ft 상공 구름 보통
고도 10000ft 상공 구름 많음
전환 중
06일 05시부터 06일 07시까지 (UTC)
고도 3500ft 상공 구름 조금, 적란운.
고도 4000ft 상공 구름 보통
고도 10000ft 상공 구름 많음
일시적
06일 10시부터 06일 18시까지 (UTC)
서남서18kt
시정: 4000m
고도 3500ft 상공 구름 보통, 적란운.
고도 4000ft 상공 구름 보통
고도 10000ft 상공 흐림
뇌우, 비
일시적
06일 18시부터 06일 23시까지 (UTC)
시정: 4000m

TAF: OITT 051730Z 0518/0624 06008KT 8000 FEW040 SCT100 TEMPO 0521/0605 FEW035CB SCT040 BKN100 BECMG 0605/0607 FEW035CB SCT040 BKN100 TEMPO 0610/0618 24018KT 4000 TSRA SCT035CB SCT040 OVC100 TEMPO 0618/0623 4000 RA

4,000개 이상의 공항 관측 자료 및 예보 (METAR 및 TAF 보고).

지도상에서 검색 가능한 기상관측소가 노란 점과 빨간 점으로 표시되어 있습니다.

기상관측소 명을 보려면 표시 위로 마우스를 이동하세요.

날씨 관측과 예보를 보려면 클릭하세요.

지도 변경 : 확대하려면 엑스 표시가 있는 녹색 버튼, 축소하려면 빼기 표시가 있는 녹색 버튼, 다음 페이지의 지도를 보려면 녹색 화살표를 클릭하세요.


METAR-TAF: